sensor_id;sensor_type;location;lat;lon;timestamp;temperature;humidity
13794;DHT22;31160;49.500;7.772;2023-03-01T00:02:11;-0.10;99.90
13794;DHT22;31160;49.500;7.772;2023-03-01T00:04:38;-0.10;99.90
13794;DHT22;31160;49.500;7.772;2023-03-01T00:07:05;-0.20;99.90
13794;DHT22;31160;49.500;7.772;2023-03-01T00:09:32;-0.20;99.90
13794;DHT22;31160;49.500;7.772;2023-03-01T00:11:58;-0.20;99.90
13794;DHT22;31160;49.500;7.772;2023-03-01T00:14:25;-0.30;99.90
13794;DHT22;31160;49.500;7.772;2023-03-01T00:16:52;-0.40;99.90
13794;DHT22;31160;49.500;7.772;2023-03-01T00:19:20;-0.40;99.90
13794;DHT22;31160;49.500;7.772;2023-03-01T00:21:49;-0.30;99.90
13794;DHT22;31160;49.500;7.772;2023-03-01T00:24:16;-0.30;99.90
13794;DHT22;31160;49.500;7.772;2023-03-01T00:26:43;-0.30;99.90
13794;DHT22;31160;49.500;7.772;2023-03-01T00:29:10;-0.30;99.90
13794;DHT22;31160;49.500;7.772;2023-03-01T00:31:36;-0.30;99.90
13794;DHT22;31160;49.500;7.772;2023-03-01T00:34:05;-0.30;99.90
13794;DHT22;31160;49.500;7.772;2023-03-01T00:36:34;-0.40;99.90
13794;DHT22;31160;49.500;7.772;2023-03-01T00:39:03;-0.30;99.90
13794;DHT22;31160;49.500;7.772;2023-03-01T00:41:31;-0.30;99.90
13794;DHT22;31160;49.500;7.772;2023-03-01T00:43:57;-0.20;99.90
13794;DHT22;31160;49.500;7.772;2023-03-01T00:46:26;-0.30;99.90
13794;DHT22;31160;49.500;7.772;2023-03-01T00:48:53;-0.30;99.90
13794;DHT22;31160;49.500;7.772;2023-03-01T00:51:26;-0.40;99.90
13794;DHT22;31160;49.500;7.772;2023-03-01T00:53:54;-0.30;99.90
13794;DHT22;31160;49.500;7.772;2023-03-01T00:56:21;-0.30;99.90
13794;DHT22;31160;49.500;7.772;2023-03-01T00:58:48;-0.30;99.90
13794;DHT22;31160;49.500;7.772;2023-03-01T01:01:23;-0.40;99.90
13794;DHT22;31160;49.500;7.772;2023-03-01T01:06:21;-0.50;99.90
13794;DHT22;31160;49.500;7.772;2023-03-01T01:08:49;-0.50;99.90
13794;DHT22;31160;49.500;7.772;2023-03-01T01:11:17;-0.40;99.90
13794;DHT22;31160;49.500;7.772;2023-03-01T01:13:45;-0.40;99.90
13794;DHT22;31160;49.500;7.772;2023-03-01T01:16:13;-0.40;99.90
13794;DHT22;31160;49.500;7.772;2023-03-01T01:18:41;-0.40;99.90
13794;DHT22;31160;49.500;7.772;2023-03-01T01:21:10;-0.50;99.90
13794;DHT22;31160;49.500;7.772;2023-03-01T01:23:39;-0.50;99.90
13794;DHT22;31160;49.500;7.772;2023-03-01T01:26:08;-0.50;99.90
13794;DHT22;31160;49.500;7.772;2023-03-01T01:28:35;-0.50;99.90
13794;DHT22;31160;49.500;7.772;2023-03-01T01:31:03;-0.60;99.90
13794;DHT22;31160;49.500;7.772;2023-03-01T01:33:30;-0.70;99.90
13794;DHT22;31160;49.500;7.772;2023-03-01T01:35:57;-0.60;99.90
13794;DHT22;31160;49.500;7.772;2023-03-01T01:38:24;-0.60;99.90
13794;DHT22;31160;49.500;7.772;2023-03-01T01:40:51;-0.80;99.90
13794;DHT22;31160;49.500;7.772;2023-03-01T01:49:01;-0.80;99.90
13794;DHT22;31160;49.500;7.772;2023-03-01T01:51:32;-0.70;99.90
13794;DHT22;31160;49.500;7.772;2023-03-01T01:54:25;-0.70;99.90
13794;DHT22;31160;49.500;7.772;2023-03-01T01:57:00;-0.80;99.90
13794;DHT22;31160;49.500;7.772;2023-03-01T01:59:30;-0.80;99.90
13794;DHT22;31160;49.500;7.772;2023-03-01T02:02:00;-0.80;99.90
13794;DHT22;31160;49.500;7.772;2023-03-01T02:04:29;-0.80;99.90
13794;DHT22;31160;49.500;7.772;2023-03-01T02:07:01;-0.80;99.90
13794;DHT22;31160;49.500;7.772;2023-03-01T02:09:30;-0.80;99.90
13794;DHT22;31160;49.500;7.772;2023-03-01T02:11:58;-0.80;99.90
13794;DHT22;31160;49.500;7.772;2023-03-01T02:14:25;-0.80;99.90
13794;DHT22;31160;49.500;7.772;2023-03-01T02:16:53;-0.90;99.90
13794;DHT22;31160;49.500;7.772;2023-03-01T02:19:58;-0.80;99.90
13794;DHT22;31160;49.500;7.772;2023-03-01T02:22:31;-0.80;99.90
13794;DHT22;31160;49.500;7.772;2023-03-01T02:25:12;-1.00;99.90
13794;DHT22;31160;49.500;7.772;2023-03-01T02:30:44;-1.00;99.90
13794;DHT22;31160;49.500;7.772;2023-03-01T02:33:31;-1.00;99.90
13794;DHT22;31160;49.500;7.772;2023-03-01T02:36:00;-1.10;99.90
13794;DHT22;31160;49.500;7.772;2023-03-01T02:38:28;-1.00;99.90
13794;DHT22;31160;49.500;7.772;2023-03-01T02:40:56;-1.10;99.90
13794;DHT22;31160;49.500;7.772;2023-03-01T02:43:29;-1.00;99.90
13794;DHT22;31160;49.500;7.772;2023-03-01T02:46:07;-1.00;99.90
13794;DHT22;31160;49.500;7.772;2023-03-01T02:48:45;-1.00;99.90
13794;DHT22;31160;49.500;7.772;2023-03-01T02:51:34;-1.00;99.90
13794;DHT22;31160;49.500;7.772;2023-03-01T02:56:43;-1.00;99.90
13794;DHT22;31160;49.500;7.772;2023-03-01T02:59:10;-0.90;99.90
13794;DHT22;31160;49.500;7.772;2023-03-01T03:01:38;-1.00;99.90
13794;DHT22;31160;49.500;7.772;2023-03-01T03:04:10;-1.00;99.90
13794;DHT22;31160;49.500;7.772;2023-03-01T03:06:37;-1.00;99.90
13794;DHT22;31160;49.500;7.772;2023-03-01T03:09:04;-1.00;99.90
13794;DHT22;31160;49.500;7.772;2023-03-01T03:11:31;-1.00;99.90
13794;DHT22;31160;49.500;7.772;2023-03-01T03:13:58;-1.00;99.90
13794;DHT22;31160;49.500;7.772;2023-03-01T03:16:25;-0.90;99.90
13794;DHT22;31160;49.500;7.772;2023-03-01T03:18:52;-0.80;99.90
13794;DHT22;31160;49.500;7.772;2023-03-01T03:21:19;-0.90;99.90
13794;DHT22;31160;49.500;7.772;2023-03-01T03:23:46;-0.90;99.90
13794;DHT22;31160;49.500;7.772;2023-03-01T03:26:13;-0.80;99.90
13794;DHT22;31160;49.500;7.772;2023-03-01T03:28:41;-0.90;99.90
13794;DHT22;31160;49.500;7.772;2023-03-01T03:31:08;-0.90;99.90
13794;DHT22;31160;49.500;7.772;2023-03-01T03:33:35;-0.80;99.90
13794;DHT22;31160;49.500;7.772;2023-03-01T03:36:02;-0.80;99.90
13794;DHT22;31160;49.500;7.772;2023-03-01T03:38:29;-0.90;99.90
13794;DHT22;31160;49.500;7.772;2023-03-01T03:41:05;-1.00;99.90
13794;DHT22;31160;49.500;7.772;2023-03-01T03:43:33;-0.90;99.90
13794;DHT22;31160;49.500;7.772;2023-03-01T03:46:02;-0.80;99.90
13794;DHT22;31160;49.500;7.772;2023-03-01T03:48:41;-0.90;99.90
13794;DHT22;31160;49.500;7.772;2023-03-01T03:51:13;-0.90;99.90
13794;DHT22;31160;49.500;7.772;2023-03-01T03:53:41;-0.90;99.90
13794;DHT22;31160;49.500;7.772;2023-03-01T03:56:07;-0.90;99.90
13794;DHT22;31160;49.500;7.772;2023-03-01T03:58:34;-0.90;99.90
13794;DHT22;31160;49.500;7.772;2023-03-01T04:01:01;-1.10;99.90
13794;DHT22;31160;49.500;7.772;2023-03-01T04:03:29;-1.00;99.90
13794;DHT22;31160;49.500;7.772;2023-03-01T04:05:58;-0.90;99.90
13794;DHT22;31160;49.500;7.772;2023-03-01T04:08:26;-0.90;99.90
13794;DHT22;31160;49.500;7.772;2023-03-01T04:10:58;-1.00;99.90
13794;DHT22;31160;49.500;7.772;2023-03-01T04:13:26;-0.90;99.90
13794;DHT22;31160;49.500;7.772;2023-03-01T04:15:53;-1.00;99.90
13794;DHT22;31160;49.500;7.772;2023-03-01T04:18:22;-1.00;99.90
13794;DHT22;31160;49.500;7.772;2023-03-01T04:20:50;-0.90;99.90
13794;DHT22;31160;49.500;7.772;2023-03-01T04:23:20;-0.90;99.90
13794;DHT22;31160;49.500;7.772;2023-03-01T04:25:52;-0.90;99.90
13794;DHT22;31160;49.500;7.772;2023-03-01T04:28:34;-1.00;99.90
13794;DHT22;31160;49.500;7.772;2023-03-01T04:31:07;-1.00;99.90
13794;DHT22;31160;49.500;7.772;2023-03-01T04:33:44;-0.90;99.90
13794;DHT22;31160;49.500;7.772;2023-03-01T04:36:13;-1.00;99.90
13794;DHT22;31160;49.500;7.772;2023-03-01T04:38:40;-1.00;99.90
13794;DHT22;31160;49.500;7.772;2023-03-01T04:41:09;-1.00;99.90
13794;DHT22;31160;49.500;7.772;2023-03-01T04:43:36;-1.10;99.90
13794;DHT22;31160;49.500;7.772;2023-03-01T04:46:13;-1.10;99.90
13794;DHT22;31160;49.500;7.772;2023-03-01T04:48:43;-1.10;99.90
13794;DHT22;31160;49.500;7.772;2023-03-01T04:51:10;-1.00;99.90
13794;DHT22;31160;49.500;7.772;2023-03-01T04:53:41;-1.10;99.90
13794;DHT22;31160;49.500;7.772;2023-03-01T04:56:08;-1.00;99.90
13794;DHT22;31160;49.500;7.772;2023-03-01T04:58:34;-1.00;99.90
13794;DHT22;31160;49.500;7.772;2023-03-01T05:01:01;-1.00;99.90
13794;DHT22;31160;49.500;7.772;2023-03-01T05:03:43;-1.00;99.90
13794;DHT22;31160;49.500;7.772;2023-03-01T05:06:10;-1.00;99.90
13794;DHT22;31160;49.500;7.772;2023-03-01T05:08:38;-1.00;99.90
13794;DHT22;31160;49.500;7.772;2023-03-01T05:11:05;-1.00;99.90
13794;DHT22;31160;49.500;7.772;2023-03-01T05:13:32;-1.10;99.90
13794;DHT22;31160;49.500;7.772;2023-03-01T05:16:01;-1.00;99.90
13794;DHT22;31160;49.500;7.772;2023-03-01T05:18:29;-1.00;99.90
13794;DHT22;31160;49.500;7.772;2023-03-01T05:21:06;-1.00;99.90
13794;DHT22;31160;49.500;7.772;2023-03-01T05:23:33;-1.00;99.90
13794;DHT22;31160;49.500;7.772;2023-03-01T05:26:02;-1.20;99.90
13794;DHT22;31160;49.500;7.772;2023-03-01T05:28:32;-1.10;99.90
13794;DHT22;31160;49.500;7.772;2023-03-01T05:30:58;-1.00;99.90
13794;DHT22;31160;49.500;7.772;2023-03-01T05:33:25;-0.90;99.90
13794;DHT22;31160;49.500;7.772;2023-03-01T05:35:53;-0.80;99.90
13794;DHT22;31160;49.500;7.772;2023-03-01T05:38:20;-0.80;99.90
13794;DHT22;31160;49.500;7.772;2023-03-01T05:40:48;-0.70;99.90
13794;DHT22;31160;49.500;7.772;2023-03-01T05:43:16;-0.70;99.90
13794;DHT22;31160;49.500;7.772;2023-03-01T05:45:43;-0.70;99.90
13794;DHT22;31160;49.500;7.772;2023-03-01T05:48:11;-0.70;99.90
13794;DHT22;31160;49.500;7.772;2023-03-01T05:50:43;-0.60;99.90
13794;DHT22;31160;49.500;7.772;2023-03-01T05:53:16;-0.60;99.90
13794;DHT22;31160;49.500;7.772;2023-03-01T05:55:43;-0.70;99.90
13794;DHT22;31160;49.500;7.772;2023-03-01T05:58:14;-0.60;99.90
13794;DHT22;31160;49.500;7.772;2023-03-01T06:00:43;-0.80;99.90
13794;DHT22;31160;49.500;7.772;2023-03-01T06:03:11;-0.70;99.90
13794;DHT22;31160;49.500;7.772;2023-03-01T06:05:39;-0.90;99.90
13794;DHT22;31160;49.500;7.772;2023-03-01T06:08:06;-0.80;99.90
13794;DHT22;31160;49.500;7.772;2023-03-01T06:10:33;-0.70;99.90
13794;DHT22;31160;49.500;7.772;2023-03-01T06:13:00;-0.60;99.90
13794;DHT22;31160;49.500;7.772;2023-03-01T06:15:27;-0.70;99.90
13794;DHT22;31160;49.500;7.772;2023-03-01T06:17:54;-0.60;99.90
13794;DHT22;31160;49.500;7.772;2023-03-01T06:20:27;-0.60;99.90
13794;DHT22;31160;49.500;7.772;2023-03-01T06:22:55;-0.60;99.90
13794;DHT22;31160;49.500;7.772;2023-03-01T06:25:24;-0.60;99.90
13794;DHT22;31160;49.500;7.772;2023-03-01T06:27:51;-0.50;99.90
13794;DHT22;31160;49.500;7.772;2023-03-01T06:30:23;-0.60;99.90
13794;DHT22;31160;49.500;7.772;2023-03-01T06:32:50;-0.50;99.90
13794;DHT22;31160;49.500;7.772;2023-03-01T06:35:18;-0.60;99.90
13794;DHT22;31160;49.500;7.772;2023-03-01T06:37:46;-0.40;99.90
13794;DHT22;31160;49.500;7.772;2023-03-01T06:40:14;-0.30;99.90
13794;DHT22;31160;49.500;7.772;2023-03-01T06:42:43;-0.40;99.90
13794;DHT22;31160;49.500;7.772;2023-03-01T06:45:10;-0.40;99.90
13794;DHT22;31160;49.500;7.772;2023-03-01T06:47:38;-0.40;99.90
13794;DHT22;31160;49.500;7.772;2023-03-01T06:50:05;-0.30;99.90
13794;DHT22;31160;49.500;7.772;2023-03-01T06:52:32;-0.30;99.90
13794;DHT22;31160;49.500;7.772;2023-03-01T06:54:59;-0.20;99.90
13794;DHT22;31160;49.500;7.772;2023-03-01T06:57:26;-0.20;99.90
13794;DHT22;31160;49.500;7.772;2023-03-01T06:59:53;0.00;99.90
13794;DHT22;31160;49.500;7.772;2023-03-01T07:02:20;0.00;99.90
13794;DHT22;31160;49.500;7.772;2023-03-01T07:04:49;0.10;99.90
13794;DHT22;31160;49.500;7.772;2023-03-01T07:07:17;0.20;99.90
13794;DHT22;31160;49.500;7.772;2023-03-01T07:09:45;0.10;99.90
13794;DHT22;31160;49.500;7.772;2023-03-01T07:12:12;0.00;99.90
13794;DHT22;31160;49.500;7.772;2023-03-01T07:14:39;0.10;99.90
13794;DHT22;31160;49.500;7.772;2023-03-01T07:17:05;0.30;99.90
13794;DHT22;31160;49.500;7.772;2023-03-01T07:19:32;0.20;99.90
13794;DHT22;31160;49.500;7.772;2023-03-01T07:21:59;0.30;99.90
13794;DHT22;31160;49.500;7.772;2023-03-01T07:24:26;0.10;99.90
13794;DHT22;31160;49.500;7.772;2023-03-01T07:26:53;0.10;99.90
13794;DHT22;31160;49.500;7.772;2023-03-01T07:29:20;0.30;99.90
13794;DHT22;31160;49.500;7.772;2023-03-01T07:31:46;0.30;99.90
13794;DHT22;31160;49.500;7.772;2023-03-01T07:34:13;0.30;99.90
13794;DHT22;31160;49.500;7.772;2023-03-01T07:36:40;0.10;99.90
13794;DHT22;31160;49.500;7.772;2023-03-01T07:39:12;0.30;99.90
13794;DHT22;31160;49.500;7.772;2023-03-01T07:41:39;0.50;99.90
13794;DHT22;31160;49.500;7.772;2023-03-01T07:44:06;0.50;99.90
13794;DHT22;31160;49.500;7.772;2023-03-01T07:46:32;0.50;99.90
13794;DHT22;31160;49.500;7.772;2023-03-01T07:48:59;0.30;99.90
13794;DHT22;31160;49.500;7.772;2023-03-01T07:51:26;0.40;99.90
13794;DHT22;31160;49.500;7.772;2023-03-01T07:53:53;0.40;99.90
13794;DHT22;31160;49.500;7.772;2023-03-01T07:56:20;0.50;99.90
13794;DHT22;31160;49.500;7.772;2023-03-01T07:58:48;0.50;99.90
13794;DHT22;31160;49.500;7.772;2023-03-01T08:01:18;0.60;99.90
13794;DHT22;31160;49.500;7.772;2023-03-01T08:03:45;0.50;99.90
13794;DHT22;31160;49.500;7.772;2023-03-01T08:06:14;0.70;99.90
13794;DHT22;31160;49.500;7.772;2023-03-01T08:08:42;0.80;99.90
13794;DHT22;31160;49.500;7.772;2023-03-01T08:11:11;0.60;99.90
13794;DHT22;31160;49.500;7.772;2023-03-01T08:13:38;0.70;99.90
13794;DHT22;31160;49.500;7.772;2023-03-01T08:16:13;0.80;99.90
13794;DHT22;31160;49.500;7.772;2023-03-01T08:18:41;1.00;99.90
13794;DHT22;31160;49.500;7.772;2023-03-01T08:21:14;1.00;99.90
13794;DHT22;31160;49.500;7.772;2023-03-01T08:23:41;1.00;99.90
13794;DHT22;31160;49.500;7.772;2023-03-01T08:26:14;1.00;99.90
13794;DHT22;31160;49.500;7.772;2023-03-01T08:28:41;1.00;99.90
13794;DHT22;31160;49.500;7.772;2023-03-01T08:31:23;1.00;99.90
13794;DHT22;31160;49.500;7.772;2023-03-01T08:33:53;1.10;99.90
13794;DHT22;31160;49.500;7.772;2023-03-01T08:36:32;1.10;99.90
13794;DHT22;31160;49.500;7.772;2023-03-01T08:39:00;1.30;99.90
13794;DHT22;31160;49.500;7.772;2023-03-01T08:41:27;1.30;99.90
13794;DHT22;31160;49.500;7.772;2023-03-01T08:43:54;1.20;99.90
13794;DHT22;31160;49.500;7.772;2023-03-01T08:46:29;1.30;99.90
13794;DHT22;31160;49.500;7.772;2023-03-01T08:48:57;1.30;99.90
13794;DHT22;31160;49.500;7.772;2023-03-01T08:51:25;1.30;99.90
13794;DHT22;31160;49.500;7.772;2023-03-01T08:53:52;1.40;99.90
13794;DHT22;31160;49.500;7.772;2023-03-01T08:56:19;1.30;99.90
13794;DHT22;31160;49.500;7.772;2023-03-01T08:58:47;1.60;99.90
13794;DHT22;31160;49.500;7.772;2023-03-01T09:01:16;1.60;99.90
13794;DHT22;31160;49.500;7.772;2023-03-01T09:03:44;1.50;99.90
13794;DHT22;31160;49.500;7.772;2023-03-01T09:06:11;1.50;99.90
13794;DHT22;31160;49.500;7.772;2023-03-01T09:08:40;1.60;99.90
13794;DHT22;31160;49.500;7.772;2023-03-01T09:11:08;1.60;99.90
13794;DHT22;31160;49.500;7.772;2023-03-01T09:13:36;1.60;99.90
13794;DHT22;31160;49.500;7.772;2023-03-01T09:16:04;1.70;99.90
13794;DHT22;31160;49.500;7.772;2023-03-01T09:18:33;1.60;99.90
13794;DHT22;31160;49.500;7.772;2023-03-01T09:21:07;1.80;99.90
13794;DHT22;31160;49.500;7.772;2023-03-01T09:23:35;2.00;99.90
13794;DHT22;31160;49.500;7.772;2023-03-01T09:26:03;2.10;99.90
13794;DHT22;31160;49.500;7.772;2023-03-01T09:28:30;2.10;99.90
13794;DHT22;31160;49.500;7.772;2023-03-01T09:31:00;2.00;99.90
13794;DHT22;31160;49.500;7.772;2023-03-01T09:33:29;2.10;99.90
13794;DHT22;31160;49.500;7.772;2023-03-01T09:38:24;2.00;99.90
13794;DHT22;31160;49.500;7.772;2023-03-01T09:40:53;1.90;99.90
13794;DHT22;31160;49.500;7.772;2023-03-01T09:43:29;2.00;99.90
13794;DHT22;31160;49.500;7.772;2023-03-01T09:46:00;2.10;99.90
13794;DHT22;31160;49.500;7.772;2023-03-01T09:48:36;2.20;99.90
13794;DHT22;31160;49.500;7.772;2023-03-01T09:51:07;2.20;99.90
13794;DHT22;31160;49.500;7.772;2023-03-01T09:53:35;2.50;99.90
13794;DHT22;31160;49.500;7.772;2023-03-01T09:56:05;2.60;99.90
13794;DHT22;31160;49.500;7.772;2023-03-01T09:58:45;2.70;99.90
13794;DHT22;31160;49.500;7.772;2023-03-01T10:01:33;2.90;99.90
13794;DHT22;31160;49.500;7.772;2023-03-01T10:07:05;2.90;99.90
13794;DHT22;31160;49.500;7.772;2023-03-01T10:09:39;2.90;99.90
13794;DHT22;31160;49.500;7.772;2023-03-01T10:12:20;2.90;99.90
13794;DHT22;31160;49.500;7.772;2023-03-01T10:17:51;2.90;99.90
13794;DHT22;31160;49.500;7.772;2023-03-01T10:20:24;3.00;99.90
13794;DHT22;31160;49.500;7.772;2023-03-01T10:22:52;3.00;99.90
13794;DHT22;31160;49.500;7.772;2023-03-01T10:25:56;3.20;99.90
13794;DHT22;31160;49.500;7.772;2023-03-01T10:28:44;3.20;99.90
13794;DHT22;31160;49.500;7.772;2023-03-01T10:31:19;3.40;99.90
13794;DHT22;31160;49.500;7.772;2023-03-01T10:33:46;3.50;99.90
13794;DHT22;31160;49.500;7.772;2023-03-01T10:36:17;3.70;99.90
13794;DHT22;31160;49.500;7.772;2023-03-01T10:39:11;3.50;99.90
13794;DHT22;31160;49.500;7.772;2023-03-01T10:44:53;3.50;99.90
13794;DHT22;31160;49.500;7.772;2023-03-01T10:47:23;3.80;99.90
13794;DHT22;31160;49.500;7.772;2023-03-01T10:50:18;3.60;99.90
13794;DHT22;31160;49.500;7.772;2023-03-01T10:52:41;3.80;99.90
13794;DHT22;31160;49.500;7.772;2023-03-01T10:55:29;3.90;99.90
13794;DHT22;31160;49.500;7.772;2023-03-01T10:58:08;3.90;99.60
13794;DHT22;31160;49.500;7.772;2023-03-01T11:00:50;3.90;99.50
13794;DHT22;31160;49.500;7.772;2023-03-01T11:03:23;3.70;99.80
13794;DHT22;31160;49.500;7.772;2023-03-01T11:06:20;3.70;99.90
13794;DHT22;31160;49.500;7.772;2023-03-01T11:08:49;3.50;99.90
13794;DHT22;31160;49.500;7.772;2023-03-01T11:11:31;3.40;99.90
13794;DHT22;31160;49.500;7.772;2023-03-01T11:14:20;3.60;99.90
13794;DHT22;31160;49.500;7.772;2023-03-01T11:17:12;3.90;99.90
13794;DHT22;31160;49.500;7.772;2023-03-01T11:19:40;3.70;99.90
13794;DHT22;31160;49.500;7.772;2023-03-01T11:22:18;3.70;99.90
13794;DHT22;31160;49.500;7.772;2023-03-01T11:24:49;3.80;99.80
13794;DHT22;31160;49.500;7.772;2023-03-01T11:27:38;3.70;99.90
13794;DHT22;31160;49.500;7.772;2023-03-01T11:32:41;3.90;99.60
13794;DHT22;31160;49.500;7.772;2023-03-01T11:35:20;3.70;99.80
13794;DHT22;31160;49.500;7.772;2023-03-01T11:40:39;3.80;99.90
13794;DHT22;31160;49.500;7.772;2023-03-01T11:43:19;3.90;99.70
13794;DHT22;31160;49.500;7.772;2023-03-01T11:48:45;4.30;99.40
13794;DHT22;31160;49.500;7.772;2023-03-01T11:51:38;4.10;99.60
13794;DHT22;31160;49.500;7.772;2023-03-01T11:54:24;4.40;99.80
13794;DHT22;31160;49.500;7.772;2023-03-01T11:56:57;4.70;99.30
13794;DHT22;31160;49.500;7.772;2023-03-01T12:13:42;4.50;99.30
13794;DHT22;31160;49.500;7.772;2023-03-01T12:16:32;4.70;98.90
13794;DHT22;31160;49.500;7.772;2023-03-01T12:19:23;4.60;98.90
13794;DHT22;31160;49.500;7.772;2023-03-01T12:22:06;4.90;98.80
13794;DHT22;31160;49.500;7.772;2023-03-01T12:28:16;4.90;98.30
13794;DHT22;31160;49.500;7.772;2023-03-01T12:30:47;4.90;98.40
13794;DHT22;31160;49.500;7.772;2023-03-01T12:33:26;4.70;98.60
13794;DHT22;31160;49.500;7.772;2023-03-01T12:36:12;4.70;98.50
13794;DHT22;31160;49.500;7.772;2023-03-01T12:45:01;4.90;98.30
13794;DHT22;31160;49.500;7.772;2023-03-01T12:50:01;5.10;98.10
13794;DHT22;31160;49.500;7.772;2023-03-01T12:55:01;5.20;97.50
13794;DHT22;31160;49.500;7.772;2023-03-01T12:57:31;5.40;97.70
13794;DHT22;31160;49.500;7.772;2023-03-01T13:00:48;5.40;97.50
13794;DHT22;31160;49.500;7.772;2023-03-01T13:06:08;5.30;97.50
13794;DHT22;31160;49.500;7.772;2023-03-01T13:08:48;5.20;97.30
13794;DHT22;31160;49.500;7.772;2023-03-01T13:11:19;5.30;97.30
13794;DHT22;31160;49.500;7.772;2023-03-01T13:13:47;5.40;97.40
13794;DHT22;31160;49.500;7.772;2023-03-01T13:16:41;5.60;97.20
13794;DHT22;31160;49.500;7.772;2023-03-01T13:19:19;5.80;96.40
13794;DHT22;31160;49.500;7.772;2023-03-01T13:21:47;5.50;96.80
13794;DHT22;31160;49.500;7.772;2023-03-01T13:32:35;5.70;96.50
13794;DHT22;31160;49.500;7.772;2023-03-01T13:37:46;5.60;96.10
13794;DHT22;31160;49.500;7.772;2023-03-01T13:42:46;5.60;96.60
13794;DHT22;31160;49.500;7.772;2023-03-01T13:45:42;5.70;96.60
13794;DHT22;31160;49.500;7.772;2023-03-01T13:48:24;5.60;96.40
13794;DHT22;31160;49.500;7.772;2023-03-01T13:50:55;5.70;96.60
13794;DHT22;31160;49.500;7.772;2023-03-01T13:53:26;6.10;96.20
13794;DHT22;31160;49.500;7.772;2023-03-01T13:56:00;5.90;95.80
13794;DHT22;31160;49.500;7.772;2023-03-01T13:58:30;5.80;95.90
13794;DHT22;31160;49.500;7.772;2023-03-01T14:01:04;5.90;96.00
13794;DHT22;31160;49.500;7.772;2023-03-01T14:03:33;5.90;95.80
13794;DHT22;31160;49.500;7.772;2023-03-01T14:06:12;5.90;95.50
13794;DHT22;31160;49.500;7.772;2023-03-01T14:08:44;5.90;95.60
13794;DHT22;31160;49.500;7.772;2023-03-01T14:11:34;5.90;95.70
13794;DHT22;31160;49.500;7.772;2023-03-01T14:20:20;6.10;95.30
13794;DHT22;31160;49.500;7.772;2023-03-01T14:22:49;6.10;94.90
13794;DHT22;31160;49.500;7.772;2023-03-01T14:25:29;6.00;95.30
13794;DHT22;31160;49.500;7.772;2023-03-01T14:28:14;6.10;94.90
13794;DHT22;31160;49.500;7.772;2023-03-01T14:30:50;6.10;95.00
13794;DHT22;31160;49.500;7.772;2023-03-01T14:33:23;6.30;94.90
13794;DHT22;31160;49.500;7.772;2023-03-01T14:36:05;6.40;94.60
13794;DHT22;31160;49.500;7.772;2023-03-01T14:38:41;6.40;94.60
13794;DHT22;31160;49.500;7.772;2023-03-01T14:41:20;6.20;94.20
13794;DHT22;31160;49.500;7.772;2023-03-01T14:44:14;6.20;94.30
13794;DHT22;31160;49.500;7.772;2023-03-01T14:46:38;6.30;94.40
13794;DHT22;31160;49.500;7.772;2023-03-01T14:49:10;6.50;93.90
13794;DHT22;31160;49.500;7.772;2023-03-01T14:51:41;6.50;93.70
13794;DHT22;31160;49.500;7.772;2023-03-01T14:54:27;6.60;93.60
13794;DHT22;31160;49.500;7.772;2023-03-01T14:56:58;6.50;93.30
13794;DHT22;31160;49.500;7.772;2023-03-01T14:59:26;6.30;93.20
13794;DHT22;31160;49.500;7.772;2023-03-01T15:01:56;6.40;93.20
13794;DHT22;31160;49.500;7.772;2023-03-01T15:04:24;6.30;93.00
13794;DHT22;31160;49.500;7.772;2023-03-01T15:06:54;6.40;92.90
13794;DHT22;31160;49.500;7.772;2023-03-01T15:09:22;6.40;92.70
13794;DHT22;31160;49.500;7.772;2023-03-01T15:11:49;6.40;92.60
13794;DHT22;31160;49.500;7.772;2023-03-01T15:16:53;6.60;92.00
13794;DHT22;31160;49.500;7.772;2023-03-01T15:19:20;6.60;91.90
13794;DHT22;31160;49.500;7.772;2023-03-01T15:21:49;6.60;91.80
13794;DHT22;31160;49.500;7.772;2023-03-01T15:24:17;6.50;91.80
13794;DHT22;31160;49.500;7.772;2023-03-01T15:26:58;6.70;91.50
13794;DHT22;31160;49.500;7.772;2023-03-01T15:29:29;6.50;91.40
13794;DHT22;31160;49.500;7.772;2023-03-01T15:34:34;6.50;91.30
13794;DHT22;31160;49.500;7.772;2023-03-01T15:37:05;6.50;91.40
13794;DHT22;31160;49.500;7.772;2023-03-01T15:39:40;6.50;91.10
13794;DHT22;31160;49.500;7.772;2023-03-01T15:47:39;6.50;91.10
13794;DHT22;31160;49.500;7.772;2023-03-01T15:50:30;6.60;90.90
13794;DHT22;31160;49.500;7.772;2023-03-01T15:53:00;6.40;91.00
13794;DHT22;31160;49.500;7.772;2023-03-01T15:55:30;6.50;91.20
13794;DHT22;31160;49.500;7.772;2023-03-01T15:58:13;6.50;91.00
13794;DHT22;31160;49.500;7.772;2023-03-01T16:00:40;6.30;91.20
13794;DHT22;31160;49.500;7.772;2023-03-01T16:03:25;6.20;91.40
13794;DHT22;31160;49.500;7.772;2023-03-01T16:05:52;6.20;91.50
13794;DHT22;31160;49.500;7.772;2023-03-01T16:08:18;6.30;91.40
13794;DHT22;31160;49.500;7.772;2023-03-01T16:10:45;6.30;91.30
13794;DHT22;31160;49.500;7.772;2023-03-01T16:13:14;6.10;91.60
13794;DHT22;31160;49.500;7.772;2023-03-01T16:15:40;6.10;91.60
13794;DHT22;31160;49.500;7.772;2023-03-01T16:18:08;6.20;91.60
13794;DHT22;31160;49.500;7.772;2023-03-01T16:20:37;6.10;91.60
13794;DHT22;31160;49.500;7.772;2023-03-01T16:23:06;6.10;91.60
13794;DHT22;31160;49.500;7.772;2023-03-01T16:25:35;6.10;91.70
13794;DHT22;31160;49.500;7.772;2023-03-01T16:28:02;6.00;91.80
13794;DHT22;31160;49.500;7.772;2023-03-01T16:30:35;6.10;91.90
13794;DHT22;31160;49.500;7.772;2023-03-01T16:33:03;5.90;92.20
13794;DHT22;31160;49.500;7.772;2023-03-01T16:35:49;5.90;92.10
13794;DHT22;31160;49.500;7.772;2023-03-01T16:38:16;5.70;92.20
13794;DHT22;31160;49.500;7.772;2023-03-01T16:40:47;5.70;92.20
13794;DHT22;31160;49.500;7.772;2023-03-01T16:43:14;5.80;92.40
13794;DHT22;31160;49.500;7.772;2023-03-01T16:45:41;5.70;92.50
13794;DHT22;31160;49.500;7.772;2023-03-01T16:48:11;5.80;92.50
13794;DHT22;31160;49.500;7.772;2023-03-01T16:50:39;5.60;92.50
13794;DHT22;31160;49.500;7.772;2023-03-01T16:53:05;5.60;92.70
13794;DHT22;31160;49.500;7.772;2023-03-01T16:55:32;5.60;92.70
13794;DHT22;31160;49.500;7.772;2023-03-01T16:58:00;5.50;92.80
13794;DHT22;31160;49.500;7.772;2023-03-01T17:00:26;5.50;92.80
13794;DHT22;31160;49.500;7.772;2023-03-01T17:02:54;5.40;92.90
13794;DHT22;31160;49.500;7.772;2023-03-01T17:05:21;5.50;93.20
13794;DHT22;31160;49.500;7.772;2023-03-01T17:07:50;5.30;93.10
13794;DHT22;31160;49.500;7.772;2023-03-01T17:10:17;5.30;93.20
13794;DHT22;31160;49.500;7.772;2023-03-01T17:12:44;5.20;93.20
13794;DHT22;31160;49.500;7.772;2023-03-01T17:15:11;5.20;93.30
13794;DHT22;31160;49.500;7.772;2023-03-01T17:17:38;5.10;93.50
13794;DHT22;31160;49.500;7.772;2023-03-01T17:20:05;5.00;93.60
13794;DHT22;31160;49.500;7.772;2023-03-01T17:22:32;5.00;93.80
13794;DHT22;31160;49.500;7.772;2023-03-01T17:24:59;5.00;93.80
13794;DHT22;31160;49.500;7.772;2023-03-01T17:27:26;5.00;93.70
13794;DHT22;31160;49.500;7.772;2023-03-01T17:29:53;5.10;93.80
13794;DHT22;31160;49.500;7.772;2023-03-01T17:32:19;4.90;94.10
13794;DHT22;31160;49.500;7.772;2023-03-01T17:34:46;4.90;94.00
13794;DHT22;31160;49.500;7.772;2023-03-01T17:37:13;4.80;94.40
13794;DHT22;31160;49.500;7.772;2023-03-01T17:39:40;4.80;94.30
13794;DHT22;31160;49.500;7.772;2023-03-01T17:42:07;4.80;94.30